Terminal Aerodrome Forecast
Issued by NWS

Home | Current Version | Previous Version | Text Only | Print | Product List | Glossary On
Versions: 1 2 3 4 5 6 7 8 9 10 11 12 13 14 15 16 17 18
735
FTUS44 KTSA 202347
TAFBVO
TAF
KBVO 202347Z 2100/2124 36014G23KT P6SM OVC025
      TEMPO 2100/2102 5SM -FZRA BR OVC015
     FM210400 01014G23KT P6SM BKN040
     FM212000 03013G21KT P6SM OVC025 PROB30 2120/2124 4SM -FZRA BR
      OVC015=

USA.gov is the U.S. government's official web portal to all federal, state and local government web resources and services.